createdAt,value
2019-02-23T00:00:16.431Z,1040.31
2019-02-23T00:00:57.026Z,1040.33
2019-02-23T00:01:37.652Z,1040.32
2019-02-23T00:02:18.256Z,1040.31
2019-02-23T00:02:58.904Z,1040.35
2019-02-23T00:03:39.622Z,1040.34
2019-02-23T00:04:20.198Z,1040.35
2019-02-23T00:05:00.800Z,1040.34
2019-02-23T00:05:41.367Z,1040.31
2019-02-23T00:06:29.549Z,1040.31
2019-02-23T00:07:02.559Z,1040.34
2019-02-23T00:07:43.120Z,1040.26
2019-02-23T00:08:23.691Z,1040.21
2019-02-23T00:09:04.289Z,1040.25
2019-02-23T00:09:45.000Z,1040.22
2019-02-23T00:10:25.574Z,1040.22
2019-02-23T00:11:06.146Z,1040.2
2019-02-23T00:11:46.719Z,1040.2
2019-02-23T00:12:27.274Z,1040.19
2019-02-23T00:13:07.833Z,1040.21
2019-02-23T00:13:48.416Z,1040.21
2019-02-23T00:14:28.968Z,1040.22
2019-02-23T00:15:09.539Z,1040.16
2019-02-23T00:15:50.123Z,1040.21
2019-02-23T00:16:30.721Z,1040.16
2019-02-23T00:17:11.285Z,1040.2
2019-02-23T00:17:51.893Z,1040.2
2019-02-23T00:18:32.442Z,1040.2
2019-02-23T00:19:24.119Z,1040.21
2019-02-23T00:19:53.628Z,1040.23
2019-02-23T00:20:34.216Z,1040.25
2019-02-23T00:21:14.813Z,1040.25
2019-02-23T00:21:55.377Z,1040.27
2019-02-23T00:22:35.957Z,1040.28
2019-02-23T00:23:16.513Z,1040.34
2019-02-23T00:23:57.076Z,1040.36
2019-02-23T00:24:37.698Z,1040.38
2019-02-23T00:25:18.271Z,1040.36
2019-02-23T00:25:58.838Z,1040.33
2019-02-23T00:26:39.409Z,1040.34
2019-02-23T00:27:19.988Z,1040.37
2019-02-23T00:28:00.567Z,1040.3
2019-02-23T00:28:41.140Z,1040.28
2019-02-23T00:29:21.707Z,1040.27
2019-02-23T00:30:02.278Z,1040.28
2019-02-23T00:30:42.941Z,1040.26
2019-02-23T00:31:23.730Z,1040.29
2019-02-23T00:32:04.319Z,1040.29
2019-02-23T00:32:44.948Z,1040.35
2019-02-23T00:33:25.566Z,1040.37
2019-02-23T00:34:06.205Z,1040.37
2019-02-23T00:34:46.799Z,1040.37
2019-02-23T00:35:27.371Z,1040.36
2019-02-23T00:36:07.944Z,1040.35
2019-02-23T00:36:48.509Z,1040.35
2019-02-23T00:37:29.056Z,1040.3
2019-02-23T00:38:09.692Z,1040.28
2019-02-23T00:38:50.252Z,1040.32
2019-02-23T00:39:30.961Z,1040.31
2019-02-23T00:40:11.555Z,1040.29
2019-02-23T00:40:52.111Z,1040.25
2019-02-23T00:41:32.704Z,1040.26
2019-02-23T00:42:13.261Z,1040.28
2019-02-23T00:42:53.818Z,1040.29
2019-02-23T00:43:34.396Z,1040.19
2019-02-23T00:44:14.975Z,1040.17
2019-02-23T00:44:55.533Z,1040.18
2019-02-23T00:45:36.114Z,1040.16
2019-02-23T00:46:16.683Z,1040.14
2019-02-23T00:46:57.276Z,1040.17
2019-02-23T00:47:37.840Z,1040.12
2019-02-23T00:48:18.417Z,1040.16
2019-02-23T00:48:59.007Z,1040.19
2019-02-23T00:49:39.596Z,1040.13
2019-02-23T00:50:20.157Z,1040.13
2019-02-23T00:51:00.719Z,1040.1
2019-02-23T00:51:41.271Z,1040.12
2019-02-23T00:52:21.838Z,1040.07
2019-02-23T00:53:02.419Z,1040.11
2019-02-23T00:53:42.970Z,1040.09
2019-02-23T00:54:23.542Z,1040.11
2019-02-23T00:55:04.116Z,1040.13
2019-02-23T00:55:44.696Z,1040.18
2019-02-23T00:56:25.264Z,1040.2
2019-02-23T00:57:05.938Z,1040.22
2019-02-23T00:57:46.457Z,1040.22
2019-02-23T00:58:27.013Z,1040.27
2019-02-23T00:59:07.590Z,1040.24
2019-02-23T00:59:48.146Z,1040.28
2019-02-23T01:00:28.725Z,1040.24
2019-02-23T01:01:09.278Z,1040.25
2019-02-23T01:01:49.833Z,1040.23
2019-02-23T01:02:30.430Z,1040.25
2019-02-23T01:03:10.980Z,1040.24
2019-02-23T01:03:51.543Z,1040.21
2019-02-23T01:04:32.100Z,1040.22
2019-02-23T01:05:12.666Z,1040.22
2019-02-23T01:05:53.237Z,1040.17
2019-02-23T01:06:33.784Z,1040.18
2019-02-23T01:07:14.358Z,1040.2
2019-02-23T01:07:54.974Z,1040.22
2019-02-23T01:08:35.579Z,1040.24
2019-02-23T01:09:16.237Z,1040.28
2019-02-23T01:09:56.790Z,1040.31
2019-02-23T01:10:37.337Z,1040.34
2019-02-23T01:11:17.894Z,1040.29
2019-02-23T01:11:58.474Z,1040.25
2019-02-23T01:12:39.077Z,1040.26
2019-02-23T01:13:19.673Z,1040.22
2019-02-23T01:14:00.289Z,1040.11
2019-02-23T01:14:40.886Z,1040.09
2019-02-23T01:15:21.454Z,1040.02
2019-02-23T01:16:02.053Z,1040.01
2019-02-23T01:16:42.662Z,1040
2019-02-23T01:17:23.242Z,1039.99
2019-02-23T01:18:03.811Z,1039.97
2019-02-23T01:18:44.366Z,1039.96
2019-02-23T01:19:24.965Z,1039.89
2019-02-23T01:20:05.559Z,1039.87
2019-02-23T01:20:46.133Z,1039.88
2019-02-23T01:21:26.686Z,1039.86
2019-02-23T01:22:07.327Z,1039.84
2019-02-23T01:22:47.877Z,1039.88
2019-02-23T01:23:28.445Z,1039.89
2019-02-23T01:24:09.020Z,1039.92
2019-02-23T01:24:49.603Z,1039.87
2019-02-23T01:25:30.163Z,1039.83
2019-02-23T01:26:10.716Z,1039.82
2019-02-23T01:26:51.277Z,1039.8
2019-02-23T01:27:31.830Z,1039.82
2019-02-23T01:28:12.381Z,1039.87
2019-02-23T01:28:52.951Z,1039.81
2019-02-23T01:29:36.591Z,1039.76
2019-02-23T01:30:17.158Z,1039.77
2019-02-23T01:30:57.719Z,1039.74
2019-02-23T01:31:38.279Z,1039.72
2019-02-23T01:32:18.879Z,1039.69
2019-02-23T01:32:59.514Z,1039.68
2019-02-23T01:33:40.092Z,1039.67
2019-02-23T01:34:20.664Z,1039.63
2019-02-23T01:35:01.208Z,1039.6
2019-02-23T01:35:41.823Z,1039.64
2019-02-23T01:36:22.419Z,1039.62
2019-02-23T01:37:02.978Z,1039.59
2019-02-23T01:37:43.530Z,1039.59
2019-02-23T01:38:24.104Z,1039.59
2019-02-23T01:39:04.655Z,1039.61
2019-02-23T01:39:45.190Z,1039.56
2019-02-23T01:40:25.770Z,1039.5
2019-02-23T01:41:06.316Z,1039.45
2019-02-23T01:41:46.901Z,1039.44
2019-02-23T01:42:27.516Z,1039.4
2019-02-23T01:43:08.094Z,1039.36
2019-02-23T01:43:48.656Z,1039.37
2019-02-23T01:44:29.222Z,1039.34
2019-02-23T01:45:09.784Z,1039.34
2019-02-23T01:45:50.340Z,1039.37
2019-02-23T01:46:30.923Z,1039.39
2019-02-23T01:47:11.493Z,1039.38
2019-02-23T01:47:52.072Z,1039.45
2019-02-23T01:48:32.627Z,1039.4
2019-02-23T01:49:13.199Z,1039.41
2019-02-23T01:49:58.708Z,1039.41
2019-02-23T01:50:34.360Z,1039.41
2019-02-23T01:51:14.973Z,1039.37
2019-02-23T01:51:55.538Z,1039.42
2019-02-23T01:52:36.089Z,1039.42
2019-02-23T01:53:16.634Z,1039.42
2019-02-23T01:53:57.193Z,1039.43
2019-02-23T01:54:37.747Z,1039.43
2019-02-23T01:55:18.339Z,1039.47
2019-02-23T01:55:59.020Z,1039.52
2019-02-23T01:56:39.643Z,1039.5
2019-02-23T01:57:20.248Z,1039.55
2019-02-23T01:58:00.768Z,1039.55
2019-02-23T01:58:41.703Z,1039.57
2019-02-23T01:59:22.250Z,1039.51
2019-02-23T02:00:02.824Z,1039.54
2019-02-23T02:00:43.420Z,1039.59
2019-02-23T02:01:24.001Z,1039.54
2019-02-23T02:02:04.553Z,1039.56
2019-02-23T02:02:45.100Z,1039.57
2019-02-23T02:03:25.663Z,1039.61
2019-02-23T02:04:06.285Z,1039.56
2019-02-23T02:04:46.859Z,1039.54
2019-02-23T02:05:27.455Z,1039.51
2019-02-23T02:06:08.004Z,1039.52
2019-02-23T02:06:48.582Z,1039.51
2019-02-23T02:07:29.138Z,1039.5
2019-02-23T02:08:09.753Z,1039.48
2019-02-23T02:08:50.340Z,1039.52
2019-02-23T02:09:30.863Z,1039.51
2019-02-23T02:10:11.415Z,1039.49
2019-02-23T02:10:51.965Z,1039.47
2019-02-23T02:11:32.540Z,1039.44
2019-02-23T02:12:13.076Z,1039.47
2019-02-23T02:12:53.629Z,1039.36
2019-02-23T02:13:34.188Z,1039.38
2019-02-23T02:14:14.772Z,1039.35
2019-02-23T02:14:55.338Z,1039.35
2019-02-23T02:15:35.954Z,1039.44
2019-02-23T02:16:16.525Z,1039.41
2019-02-23T02:16:57.099Z,1039.35
2019-02-23T02:17:37.693Z,1039.4
2019-02-23T02:18:18.256Z,1039.4
2019-02-23T02:18:58.848Z,1039.47
2019-02-23T02:19:39.427Z,1039.42
2019-02-23T02:20:20.062Z,1039.45
2019-02-23T02:21:00.578Z,1039.52
2019-02-23T02:21:41.149Z,1039.49
2019-02-23T02:22:21.703Z,1039.54
2019-02-23T02:23:02.268Z,1039.56
2019-02-23T02:23:42.816Z,1039.53
2019-02-23T02:24:23.384Z,1039.51
2019-02-23T02:25:03.913Z,1039.5
2019-02-23T02:25:44.527Z,1039.47
2019-02-23T02:26:25.094Z,1039.46
2019-02-23T02:27:05.715Z,1039.45
2019-02-23T02:27:46.293Z,1039.39
2019-02-23T02:28:26.878Z,1039.34
2019-02-23T02:29:07.423Z,1039.35
2019-02-23T02:29:48.018Z,1039.33
2019-02-23T02:30:28.588Z,1039.21
2019-02-23T02:31:09.138Z,1039.22
2019-02-23T02:31:49.701Z,1039.2
2019-02-23T02:32:30.272Z,1039.19
2019-02-23T02:33:10.826Z,1039.18
2019-02-23T02:33:51.391Z,1039.16
2019-02-23T02:34:31.959Z,1039.13
2019-02-23T02:35:12.511Z,1039.19
2019-02-23T02:35:53.073Z,1039.19
2019-02-23T02:36:33.642Z,1039.22
2019-02-23T02:37:14.218Z,1039.21
2019-02-23T02:37:54.850Z,1039.27
2019-02-23T02:38:35.398Z,1039.24
2019-02-23T02:39:15.955Z,1039.27
2019-02-23T02:39:56.529Z,1039.3
2019-02-23T02:40:37.103Z,1039.33
2019-02-23T02:41:17.714Z,1039.35
2019-02-23T02:41:58.295Z,1039.28
2019-02-23T02:42:38.904Z,1039.28
2019-02-23T02:43:19.557Z,1039.32
2019-02-23T02:44:00.100Z,1039.28
2019-02-23T02:44:40.665Z,1039.24
2019-02-23T02:45:21.236Z,1039.24
2019-02-23T02:46:01.813Z,1039.22
2019-02-23T02:46:42.477Z,1039.18
2019-02-23T02:47:23.054Z,1039.23
2019-02-23T02:48:03.642Z,1039.18
2019-02-23T02:48:44.205Z,1039.24
2019-02-23T02:49:24.787Z,1039.16
2019-02-23T02:50:05.361Z,1039.17
2019-02-23T02:50:46.013Z,1039.19
2019-02-23T02:51:26.687Z,1039.17
2019-02-23T02:52:07.235Z,1039.15
2019-02-23T02:52:47.783Z,1039.11
2019-02-23T02:53:28.349Z,1039.15
2019-02-23T02:54:08.906Z,1039.16
2019-02-23T02:54:49.470Z,1039.18
2019-02-23T02:55:30.022Z,1039.16
2019-02-23T02:56:10.600Z,1039.16
2019-02-23T02:56:51.156Z,1039.11
2019-02-23T02:57:31.710Z,1039.14
2019-02-23T02:58:12.277Z,1039.1
2019-02-23T02:58:53.284Z,1039.02
2019-02-23T02:59:33.854Z,1038.98
2019-02-23T03:00:14.470Z,1038.94
2019-02-23T03:00:55.143Z,1038.91
2019-02-23T03:01:35.773Z,1038.88
2019-02-23T03:02:16.374Z,1038.92
2019-02-23T03:02:56.984Z,1038.9
2019-02-23T03:03:37.551Z,1038.88
2019-02-23T03:04:18.101Z,1038.83
2019-02-23T03:04:58.690Z,1038.8
2019-02-23T03:05:39.286Z,1038.78
2019-02-23T03:06:19.829Z,1038.77
2019-02-23T03:07:00.405Z,1038.75
2019-02-23T03:07:41.059Z,1038.75
2019-02-23T03:08:21.685Z,1038.76
2019-02-23T03:09:02.256Z,1038.77
2019-02-23T03:09:42.941Z,1038.78
2019-02-23T03:10:23.415Z,1038.82
2019-02-23T03:11:03.998Z,1038.83
2019-02-23T03:11:44.565Z,1038.85
2019-02-23T03:12:25.201Z,1038.8
2019-02-23T03:13:05.751Z,1038.85
2019-02-23T03:13:46.325Z,1038.85
2019-02-23T03:14:26.958Z,1038.83
2019-02-23T03:15:07.502Z,1038.86
2019-02-23T03:15:48.070Z,1038.85
2019-02-23T03:16:28.655Z,1038.89
2019-02-23T03:17:09.315Z,1038.88
2019-02-23T03:17:49.929Z,1038.86
2019-02-23T03:18:30.480Z,1038.89
2019-02-23T03:19:11.059Z,1038.93
2019-02-23T03:19:51.585Z,1038.93
2019-02-23T03:20:36.456Z,1038.96
2019-02-23T03:21:12.730Z,1038.92
2019-02-23T03:21:53.347Z,1038.99
2019-02-23T03:22:33.968Z,1038.98
2019-02-23T03:23:14.549Z,1038.97
2019-02-23T03:23:55.123Z,1038.96
2019-02-23T03:24:35.680Z,1038.96
2019-02-23T03:25:16.246Z,1038.97
2019-02-23T03:25:56.818Z,1038.95
2019-02-23T03:26:37.469Z,1038.98
2019-02-23T03:27:18.015Z,1038.93
2019-02-23T03:27:58.595Z,1038.98
2019-02-23T03:28:39.160Z,1038.99
2019-02-23T03:29:19.733Z,1038.96
2019-02-23T03:30:00.419Z,1039
2019-02-23T03:30:40.919Z,1039.01
2019-02-23T03:31:21.505Z,1039.03
2019-02-23T03:32:02.125Z,1039.1
2019-02-23T03:32:42.702Z,1039.09
2019-02-23T03:33:23.268Z,1039.16
2019-02-23T03:34:03.852Z,1039.13
2019-02-23T03:34:44.451Z,1039.1
2019-02-23T03:35:24.996Z,1039.09
2019-02-23T03:36:05.585Z,1039.1
2019-02-23T03:36:46.182Z,1039.06
2019-02-23T03:37:26.738Z,1039.03
2019-02-23T03:38:07.340Z,1039.04
2019-02-23T03:38:47.909Z,1039.03
2019-02-23T03:39:28.485Z,1039.03
2019-02-23T03:40:09.071Z,1039.05
2019-02-23T03:40:49.637Z,1039.02
2019-02-23T03:41:30.193Z,1039.02
2019-02-23T03:42:10.785Z,1038.98
2019-02-23T03:42:51.364Z,1038.9
2019-02-23T03:43:31.918Z,1038.94
2019-02-23T03:44:12.500Z,1038.92
2019-02-23T03:44:53.050Z,1038.96
2019-02-23T03:45:33.656Z,1038.91
2019-02-23T03:46:14.228Z,1038.91
2019-02-23T03:46:54.823Z,1038.9
2019-02-23T03:47:35.391Z,1038.94
2019-02-23T03:48:15.962Z,1038.96
2019-02-23T03:48:56.580Z,1038.95
2019-02-23T03:49:37.170Z,1038.94
2019-02-23T03:50:17.738Z,1038.98
2019-02-23T03:50:58.283Z,1039.01
2019-02-23T03:51:38.846Z,1039
2019-02-23T03:52:19.420Z,1039.03
2019-02-23T03:53:00.013Z,1039.03
2019-02-23T03:53:40.589Z,1039.07
2019-02-23T03:54:21.139Z,1039.13
2019-02-23T03:55:01.728Z,1039.15
2019-02-23T03:55:42.340Z,1039.14
2019-02-23T03:56:22.925Z,1039.16
2019-02-23T03:57:03.479Z,1039.24
2019-02-23T03:57:44.040Z,1039.14
2019-02-23T03:58:24.671Z,1039.13
2019-02-23T03:59:05.270Z,1039.12
2019-02-23T03:59:45.836Z,1039.11
2019-02-23T04:00:26.388Z,1039.09
2019-02-23T04:01:06.992Z,1039.05
2019-02-23T04:01:47.569Z,1039.04
2019-02-23T04:02:28.115Z,1038.98
2019-02-23T04:03:08.693Z,1039.02
2019-02-23T04:03:49.267Z,1039.01
2019-02-23T04:04:29.809Z,1038.99
2019-02-23T04:05:10.378Z,1039
2019-02-23T04:05:50.938Z,1038.97
2019-02-23T04:06:31.503Z,1039.02
2019-02-23T04:07:12.075Z,1039.04
2019-02-23T04:07:52.647Z,1039.08
2019-02-23T04:08:33.209Z,1039.12
2019-02-23T04:09:13.812Z,1039.15
2019-02-23T04:09:54.387Z,1039.22
2019-02-23T04:10:34.967Z,1039.13
2019-02-23T04:11:15.541Z,1039.08
2019-02-23T04:11:56.079Z,1039.05
2019-02-23T04:12:36.633Z,1039.04
2019-02-23T04:13:17.210Z,1039.01
2019-02-23T04:13:57.780Z,1038.99
2019-02-23T04:14:38.405Z,1038.91
2019-02-23T04:15:19.073Z,1038.92
2019-02-23T04:15:59.529Z,1038.94
2019-02-23T04:16:40.082Z,1038.92
2019-02-23T04:17:20.669Z,1038.93
2019-02-23T04:18:01.225Z,1038.96
2019-02-23T04:18:41.780Z,1038.91
2019-02-23T04:19:22.340Z,1038.92
2019-02-23T04:20:02.920Z,1038.92
2019-02-23T04:20:43.472Z,1038.97
2019-02-23T04:21:24.025Z,1038.93
2019-02-23T04:22:04.594Z,1038.97
2019-02-23T04:22:45.168Z,1039.03
2019-02-23T04:23:25.728Z,1039.01
2019-02-23T04:24:06.284Z,1039.05
2019-02-23T04:24:46.836Z,1039.05
2019-02-23T04:25:27.429Z,1039.15
2019-02-23T04:26:07.988Z,1039.11
2019-02-23T04:26:48.563Z,1039.13
2019-02-23T04:27:29.172Z,1039.2
2019-02-23T04:28:09.737Z,1039.25
2019-02-23T04:28:50.330Z,1039.21
2019-02-23T04:29:30.892Z,1039.24
2019-02-23T04:30:11.456Z,1039.24
2019-02-23T04:30:52.024Z,1039.31
2019-02-23T04:31:32.577Z,1039.3
2019-02-23T04:32:13.183Z,1039.36
2019-02-23T04:32:53.755Z,1039.37
2019-02-23T04:33:34.345Z,1039.44
2019-02-23T04:34:14.943Z,1039.5
2019-02-23T04:34:55.491Z,1039.53
2019-02-23T04:35:36.053Z,1039.52
2019-02-23T04:36:16.607Z,1039.52
2019-02-23T04:36:57.171Z,1039.53
2019-02-23T04:37:37.757Z,1039.51
2019-02-23T04:38:18.332Z,1039.53
2019-02-23T04:38:58.913Z,1039.54
2019-02-23T04:39:39.459Z,1039.53
2019-02-23T04:40:20.033Z,1039.61
2019-02-23T04:41:00.599Z,1039.6
2019-02-23T04:41:41.166Z,1039.59
2019-02-23T04:42:21.757Z,1039.6
2019-02-23T04:43:02.366Z,1039.61
2019-02-23T04:43:44.147Z,1039.57
2019-02-23T04:44:23.518Z,1039.56
2019-02-23T04:45:04.089Z,1039.59
2019-02-23T04:45:44.664Z,1039.56
2019-02-23T04:46:25.222Z,1039.51
2019-02-23T04:47:05.816Z,1039.52
2019-02-23T04:47:46.438Z,1039.53
2019-02-23T04:48:26.996Z,1039.5
2019-02-23T04:49:07.574Z,1039.5
2019-02-23T04:49:48.136Z,1039.48
2019-02-23T04:50:28.723Z,1039.49
2019-02-23T04:51:14.073Z,1039.53
2019-02-23T04:51:49.822Z,1039.5
2019-02-23T04:52:30.396Z,1039.53
2019-02-23T04:53:10.978Z,1039.49
2019-02-23T04:53:51.537Z,1039.52
2019-02-23T04:54:32.127Z,1039.57
2019-02-23T04:55:12.682Z,1039.56
2019-02-23T04:55:53.299Z,1039.55
2019-02-23T04:56:33.863Z,1039.52
2019-02-23T04:57:14.421Z,1039.47
2019-02-23T04:57:55.006Z,1039.46
2019-02-23T04:58:35.553Z,1039.41
2019-02-23T04:59:16.467Z,1039.36
2019-02-23T04:59:57.058Z,1039.35
2019-02-23T05:00:37.606Z,1039.37
2019-02-23T05:01:18.207Z,1039.36
2019-02-23T05:01:58.749Z,1039.32
2019-02-23T05:02:39.318Z,1039.33
2019-02-23T05:03:19.877Z,1039.31
2019-02-23T05:04:00.441Z,1039.32
2019-02-23T05:04:41.012Z,1039.29
2019-02-23T05:05:21.656Z,1039.27
2019-02-23T05:06:02.233Z,1039.29
2019-02-23T05:06:42.801Z,1039.27
2019-02-23T05:07:23.374Z,1039.33
2019-02-23T05:08:03.937Z,1039.34
2019-02-23T05:08:44.502Z,1039.32
2019-02-23T05:09:25.080Z,1039.36
2019-02-23T05:10:05.686Z,1039.35
2019-02-23T05:10:46.250Z,1039.39
2019-02-23T05:11:26.813Z,1039.41
2019-02-23T05:12:07.466Z,1039.42
2019-02-23T05:12:48.035Z,1039.48
2019-02-23T05:13:28.606Z,1039.48
2019-02-23T05:14:09.178Z,1039.45
2019-02-23T05:14:49.718Z,1039.46
2019-02-23T05:15:30.321Z,1039.45
2019-02-23T05:16:10.875Z,1039.45
2019-02-23T05:16:51.441Z,1039.4
2019-02-23T05:17:32.000Z,1039.4
2019-02-23T05:18:12.581Z,1039.38
2019-02-23T05:18:53.137Z,1039.35
2019-02-23T05:19:33.695Z,1039.31
2019-02-23T05:20:14.289Z,1039.28
2019-02-23T05:20:54.840Z,1039.27
2019-02-23T05:21:35.401Z,1039.3
2019-02-23T05:22:15.999Z,1039.27
2019-02-23T05:22:56.535Z,1039.3
2019-02-23T05:23:37.128Z,1039.3
2019-02-23T05:24:17.686Z,1039.34
2019-02-23T05:24:58.244Z,1039.39
2019-02-23T05:25:38.799Z,1039.37
2019-02-23T05:26:19.536Z,1039.41
2019-02-23T05:27:00.028Z,1039.43
2019-02-23T05:27:40.578Z,1039.43
2019-02-23T05:28:21.155Z,1039.4
2019-02-23T05:29:01.758Z,1039.43
2019-02-23T05:29:42.312Z,1039.45
2019-02-23T05:30:22.879Z,1039.48
2019-02-23T05:31:03.506Z,1039.45
2019-02-23T05:31:44.062Z,1039.47
2019-02-23T05:32:24.629Z,1039.47
2019-02-23T05:33:05.178Z,1039.49
2019-02-23T05:33:45.766Z,1039.51
2019-02-23T05:34:26.291Z,1039.46
2019-02-23T05:35:06.872Z,1039.48
2019-02-23T05:35:47.423Z,1039.41
2019-02-23T05:36:28.010Z,1039.43
2019-02-23T05:37:08.624Z,1039.4
2019-02-23T05:37:49.214Z,1039.4
2019-02-23T05:38:29.784Z,1039.38
2019-02-23T05:39:10.345Z,1039.32
2019-02-23T05:39:50.925Z,1039.33
2019-02-23T05:40:31.461Z,1039.31
2019-02-23T05:41:12.041Z,1039.39
2019-02-23T05:41:52.620Z,1039.4
2019-02-23T05:42:33.179Z,1039.38
2019-02-23T05:43:13.782Z,1039.44
2019-02-23T05:43:54.358Z,1039.45
2019-02-23T05:44:34.930Z,1039.44
2019-02-23T05:45:15.490Z,1039.43
2019-02-23T05:45:56.082Z,1039.41
2019-02-23T05:46:36.640Z,1039.43
2019-02-23T05:47:17.214Z,1039.45
2019-02-23T05:47:57.779Z,1039.43
2019-02-23T05:48:38.359Z,1039.46
2019-02-23T05:49:18.938Z,1039.42
2019-02-23T05:49:59.484Z,1039.44
2019-02-23T05:50:40.142Z,1039.4
2019-02-23T05:51:20.678Z,1039.43
2019-02-23T05:52:01.244Z,1039.51
2019-02-23T05:52:41.783Z,1039.52
2019-02-23T05:53:22.342Z,1039.49
2019-02-23T05:54:02.898Z,1039.51
2019-02-23T05:54:43.454Z,1039.49
2019-02-23T05:55:24.044Z,1039.48
2019-02-23T05:56:04.628Z,1039.5
2019-02-23T05:56:45.170Z,1039.52
2019-02-23T05:57:25.741Z,1039.46
2019-02-23T05:58:06.295Z,1039.48
2019-02-23T05:58:46.849Z,1039.46
2019-02-23T05:59:27.564Z,1039.48
2019-02-23T06:00:08.145Z,1039.47
2019-02-23T06:00:48.700Z,1039.48
2019-02-23T06:01:29.265Z,1039.49
2019-02-23T06:02:09.839Z,1039.53
2019-02-23T06:02:50.436Z,1039.56
2019-02-23T06:03:31.024Z,1039.56
2019-02-23T06:04:11.597Z,1039.57
2019-02-23T06:04:52.241Z,1039.57
2019-02-23T06:05:32.787Z,1039.52
2019-02-23T06:06:13.302Z,1039.57
2019-02-23T06:06:53.890Z,1039.58
2019-02-23T06:07:34.467Z,1039.52
2019-02-23T06:08:15.116Z,1039.5
2019-02-23T06:08:55.692Z,1039.54
2019-02-23T06:09:36.324Z,1039.54
2019-02-23T06:10:16.930Z,1039.58
2019-02-23T06:10:57.664Z,1039.6
2019-02-23T06:11:38.200Z,1039.63
2019-02-23T06:12:18.750Z,1039.69
2019-02-23T06:12:59.314Z,1039.71
2019-02-23T06:13:39.890Z,1039.7
2019-02-23T06:14:22.431Z,1039.68
2019-02-23T06:15:03.004Z,1039.69
2019-02-23T06:15:43.567Z,1039.65
2019-02-23T06:16:24.168Z,1039.64
2019-02-23T06:17:04.801Z,1039.6
2019-02-23T06:17:45.351Z,1039.63
2019-02-23T06:18:26.017Z,1039.59
2019-02-23T06:19:06.589Z,1039.61
2019-02-23T06:19:47.182Z,1039.68
2019-02-23T06:20:27.768Z,1039.7
2019-02-23T06:21:08.318Z,1039.75
2019-02-23T06:21:53.301Z,1039.81
2019-02-23T06:22:29.425Z,1039.79
2019-02-23T06:23:09.986Z,1039.77
2019-02-23T06:23:50.549Z,1039.79
2019-02-23T06:24:31.097Z,1039.76
2019-02-23T06:25:11.706Z,1039.79
2019-02-23T06:25:52.262Z,1039.77
2019-02-23T06:26:32.844Z,1039.78
2019-02-23T06:27:13.409Z,1039.8
2019-02-23T06:27:53.986Z,1039.8
2019-02-23T06:28:34.559Z,1039.85
2019-02-23T06:29:15.144Z,1039.9
2019-02-23T06:29:55.756Z,1039.92
2019-02-23T06:30:36.350Z,1039.94
2019-02-23T06:31:16.961Z,1039.93
2019-02-23T06:31:57.528Z,1039.99
2019-02-23T06:32:38.105Z,1039.91
2019-02-23T06:33:18.671Z,1039.93
2019-02-23T06:33:59.263Z,1039.87
2019-02-23T06:34:39.818Z,1039.85
2019-02-23T06:35:20.390Z,1039.83
2019-02-23T06:36:00.965Z,1039.87
2019-02-23T06:36:41.633Z,1039.93
2019-02-23T06:37:22.206Z,1039.96
2019-02-23T06:38:02.777Z,1039.97
2019-02-23T06:38:43.365Z,1039.98
2019-02-23T06:39:23.921Z,1039.96
2019-02-23T06:40:04.493Z,1039.94
2019-02-23T06:40:45.049Z,1039.93
2019-02-23T06:41:25.631Z,1039.93
2019-02-23T06:42:06.185Z,1039.87
2019-02-23T06:42:46.777Z,1039.86
2019-02-23T06:43:27.291Z,1039.86
2019-02-23T06:44:07.850Z,1039.87
2019-02-23T06:44:48.424Z,1039.84
2019-02-23T06:45:29.011Z,1039.84
2019-02-23T06:46:09.572Z,1039.84
2019-02-23T06:46:50.141Z,1039.8
2019-02-23T06:47:30.706Z,1039.78
2019-02-23T06:48:11.291Z,1039.76
2019-02-23T06:48:51.906Z,1039.74
2019-02-23T06:49:32.452Z,1039.71
2019-02-23T06:50:13.060Z,1039.74
2019-02-23T06:50:53.608Z,1039.6
2019-02-23T06:51:34.163Z,1039.61
2019-02-23T06:52:14.723Z,1039.56
2019-02-23T06:52:55.307Z,1039.54
2019-02-23T06:53:35.899Z,1039.54
2019-02-23T06:54:16.448Z,1039.46
2019-02-23T06:54:58.424Z,1039.43
2019-02-23T06:55:37.583Z,1039.44
2019-02-23T06:56:18.161Z,1039.43
2019-02-23T06:56:58.722Z,1039.39
2019-02-23T06:57:39.276Z,1039.42
2019-02-23T06:58:19.848Z,1039.39
2019-02-23T06:59:00.398Z,1039.41
2019-02-23T06:59:40.980Z,1039.42
2019-02-23T07:00:21.535Z,1039.43
2019-02-23T07:01:02.089Z,1039.41
2019-02-23T07:01:42.652Z,1039.42
2019-02-23T07:02:23.209Z,1039.49
2019-02-23T07:03:03.775Z,1039.51
2019-02-23T07:03:44.323Z,1039.54
2019-02-23T07:04:24.879Z,1039.55
2019-02-23T07:05:05.433Z,1039.59
2019-02-23T07:05:46.011Z,1039.61
2019-02-23T07:06:26.582Z,1039.65
2019-02-23T07:07:07.159Z,1039.65
2019-02-23T07:07:47.806Z,1039.67
2019-02-23T07:08:28.363Z,1039.69
2019-02-23T07:09:08.977Z,1039.72
2019-02-23T07:09:49.530Z,1039.78
2019-02-23T07:10:30.109Z,1039.82
2019-02-23T07:11:10.744Z,1039.79
2019-02-23T07:11:51.302Z,1039.85
2019-02-23T07:12:31.856Z,1039.85
2019-02-23T07:13:12.439Z,1039.86
2019-02-23T07:13:53.034Z,1039.87
2019-02-23T07:14:33.588Z,1039.9
2019-02-23T07:15:14.191Z,1039.93
2019-02-23T07:15:54.748Z,1039.95
2019-02-23T07:16:35.331Z,1039.95
2019-02-23T07:17:15.900Z,1039.96
2019-02-23T07:17:56.442Z,1039.97
2019-02-23T07:18:37.010Z,1040
2019-02-23T07:19:17.613Z,1040.04
2019-02-23T07:19:58.192Z,1040
2019-02-23T07:20:43.993Z,1040.03
2019-02-23T07:21:19.309Z,1040.04
2019-02-23T07:21:59.903Z,1040.02
2019-02-23T07:22:40.547Z,1040
2019-02-23T07:23:21.087Z,1040.02
2019-02-23T07:24:01.631Z,1039.98
2019-02-23T07:24:42.223Z,1040.01
2019-02-23T07:25:22.861Z,1040.05
2019-02-23T07:26:03.459Z,1040.04
2019-02-23T07:26:44.039Z,1040.05
2019-02-23T07:27:24.713Z,1040.04
2019-02-23T07:28:05.177Z,1040.07
2019-02-23T07:28:45.765Z,1040.07
2019-02-23T07:29:26.348Z,1040.08
2019-02-23T07:30:06.895Z,1040.06
2019-02-23T07:30:47.486Z,1040.05
2019-02-23T07:31:28.038Z,1040.07
2019-02-23T07:32:08.609Z,1040.11
2019-02-23T07:32:49.215Z,1040.04
2019-02-23T07:33:33.012Z,1040.12
2019-02-23T07:34:10.338Z,1040.08
2019-02-23T07:34:50.892Z,1040.11
2019-02-23T07:35:31.503Z,1040.14
2019-02-23T07:36:12.055Z,1040.13
2019-02-23T07:36:52.604Z,1040.14
2019-02-23T07:37:33.170Z,1040.18
2019-02-23T07:38:13.732Z,1040.2
2019-02-23T07:38:54.290Z,1040.13
2019-02-23T07:39:34.862Z,1040.16
2019-02-23T07:40:15.416Z,1040.14
2019-02-23T07:40:56.016Z,1040.1
2019-02-23T07:41:36.544Z,1040.01
2019-02-23T07:42:17.112Z,1039.97
2019-02-23T07:42:57.674Z,1039.93
2019-02-23T07:43:38.235Z,1039.95
2019-02-23T07:44:18.805Z,1039.86
2019-02-23T07:44:59.359Z,1039.81
2019-02-23T07:45:39.926Z,1039.8
2019-02-23T07:46:20.483Z,1039.78
2019-02-23T07:47:01.054Z,1039.74
2019-02-23T07:47:41.636Z,1039.77
2019-02-23T07:48:22.218Z,1039.72
2019-02-23T07:49:02.754Z,1039.76
2019-02-23T07:49:43.317Z,1039.71
2019-02-23T07:50:23.897Z,1039.72
2019-02-23T07:51:04.483Z,1039.74
2019-02-23T07:51:45.074Z,1039.74
2019-02-23T07:52:26.434Z,1039.73
2019-02-23T07:53:06.189Z,1039.69
2019-02-23T07:53:46.752Z,1039.67
2019-02-23T07:54:27.320Z,1039.63
2019-02-23T07:55:07.871Z,1039.58
2019-02-23T07:55:48.428Z,1039.58
2019-02-23T07:56:29.013Z,1039.53
2019-02-23T07:57:09.622Z,1039.54
2019-02-23T07:57:50.179Z,1039.49
2019-02-23T07:58:30.740Z,1039.47
2019-02-23T07:59:11.367Z,1039.5
2019-02-23T07:59:51.906Z,1039.42
2019-02-23T08:00:32.448Z,1039.39
2019-02-23T08:01:13.011Z,1039.34
2019-02-23T08:01:54.242Z,1039.28
2019-02-23T08:02:34.932Z,1039.21
2019-02-23T08:03:15.497Z,1039.21
2019-02-23T08:03:56.072Z,1039.18
2019-02-23T08:04:36.761Z,1039.18
2019-02-23T08:05:17.324Z,1039.2
2019-02-23T08:05:58.030Z,1039.24
2019-02-23T08:06:38.692Z,1039.25
2019-02-23T08:07:19.526Z,1039.32
2019-02-23T08:08:00.426Z,1039.32
2019-02-23T08:08:41.110Z,1039.3
2019-02-23T08:09:21.755Z,1039.29
2019-02-23T08:10:02.622Z,1039.32
2019-02-23T08:10:43.174Z,1039.3
2019-02-23T08:11:24.102Z,1039.31
2019-02-23T08:12:04.884Z,1039.39
2019-02-23T08:12:45.625Z,1039.52